createdAt,value
2023-05-04T00:01:22.331Z,98613.06
2023-05-04T00:05:24.456Z,98617.53
2023-05-04T00:09:27.010Z,98620.06
2023-05-04T00:13:29.024Z,98613.19
2023-05-04T00:17:31.853Z,98608.97
2023-05-04T00:21:34.024Z,98605.63
2023-05-04T00:25:36.080Z,98603.03
2023-05-04T00:29:38.127Z,98601.34
2023-05-04T00:33:40.157Z,98595.34
2023-05-04T00:37:43.702Z,98592.00
2023-05-04T00:41:45.882Z,98601.47
2023-05-04T00:45:48.130Z,98588.41
2023-05-04T00:49:52.060Z,98592.84
2023-05-04T00:53:55.763Z,98590.38
2023-05-04T00:57:57.842Z,98592.16
2023-05-04T01:01:59.899Z,98586.09
2023-05-04T01:06:07.881Z,98586.91
2023-05-04T01:10:22.707Z,98579.06
2023-05-04T01:14:25.828Z,98578.34
2023-05-04T01:18:27.841Z,98580.16
2023-05-04T01:22:30.076Z,98576.81
2023-05-04T01:26:40.046Z,98574.25
2023-05-04T01:30:49.754Z,98574.22
2023-05-04T01:34:52.000Z,98575.03
2023-05-04T01:38:55.647Z,98578.56
2023-05-04T01:42:57.670Z,98576.00
2023-05-04T01:46:59.718Z,98574.31
2023-05-04T01:51:01.808Z,98574.41
2023-05-04T01:55:03.988Z,98584.84
2023-05-04T01:59:07.677Z,98583.06
2023-05-04T02:03:09.852Z,98577.06
2023-05-04T02:07:12.863Z,98571.16
2023-05-04T02:11:16.233Z,98567.97
2023-05-04T02:15:18.288Z,98572.31
2023-05-04T02:19:20.382Z,98572.19
2023-05-04T02:23:22.428Z,98561.81
2023-05-04T02:27:24.416Z,98568.78
2023-05-04T02:31:26.446Z,98556.78
2023-05-04T02:35:28.470Z,98564.63
2023-05-04T02:39:30.503Z,98565.47
2023-05-04T02:43:32.590Z,98569.81
2023-05-04T02:47:35.078Z,98570.63
2023-05-04T02:51:37.112Z,98570.63
2023-05-04T02:55:39.177Z,98570.72
2023-05-04T02:59:41.237Z,98573.34
2023-05-04T03:03:43.424Z,98567.28
2023-05-04T03:07:45.501Z,98560.34
2023-05-04T03:11:47.608Z,98556.78
2023-05-04T03:15:49.960Z,98545.59
2023-05-04T03:19:52.170Z,98552.47
2023-05-04T03:23:54.342Z,98547.19
2023-05-04T03:27:57.278Z,98541.03
2023-05-04T03:31:59.379Z,98548.75
2023-05-04T03:36:01.570Z,98535.72
2023-05-04T03:40:04.342Z,98533.16
2023-05-04T03:44:06.574Z,98534.91
2023-05-04T03:48:09.964Z,98533.09
2023-05-04T03:52:11.970Z,98535.63
2023-05-04T03:56:14.266Z,98535.59
2023-05-04T04:00:17.229Z,98530.47
2023-05-04T04:04:26.416Z,98527.94
2023-05-04T04:08:28.435Z,98533.06
2023-05-04T04:12:30.539Z,98541.56
2023-05-04T04:16:32.604Z,98536.22
2023-05-04T04:20:34.777Z,98529.13
2023-05-04T04:24:36.744Z,98533.44
2023-05-04T04:28:38.752Z,98528.25
2023-05-04T04:32:41.339Z,98524.53
2023-05-04T04:36:43.944Z,98538.81
2023-05-04T04:40:46.010Z,98534.06
2023-05-04T04:44:49.460Z,98544.94
2023-05-04T04:48:53.412Z,98544.50
2023-05-04T04:52:55.885Z,98552.06
2023-05-04T04:56:59.435Z,98545.91
2023-05-04T05:01:04.509Z,98561.78
2023-05-04T05:05:07.773Z,98562.63
2023-05-04T05:09:09.864Z,98551.50
2023-05-04T05:13:12.000Z,98552.75
2023-05-04T05:17:14.041Z,98555.59
2023-05-04T05:21:16.039Z,98549.31
2023-05-04T05:25:18.987Z,98547.72
2023-05-04T05:29:21.482Z,98545.97
2023-05-04T05:33:23.836Z,98545.88
2023-05-04T05:37:25.835Z,98540.50
2023-05-04T05:41:27.821Z,98536.56
2023-05-04T05:45:29.893Z,98534.94
2023-05-04T05:49:32.043Z,98525.94
2023-05-04T05:53:34.152Z,98518.75
2023-05-04T05:57:36.181Z,98520.56
2023-05-04T06:01:38.194Z,98523.06
2023-05-04T06:05:40.558Z,98527.19
2023-05-04T06:09:42.591Z,98516.97
2023-05-04T06:13:44.674Z,98516.25
2023-05-04T06:17:48.904Z,98518.38
2023-05-04T06:21:51.063Z,98507.41
2023-05-04T06:25:53.161Z,98520.22
2023-05-04T06:29:55.580Z,98513.09
2023-05-04T06:33:57.819Z,98511.03
2023-05-04T06:37:59.882Z,98515.09
2023-05-04T06:42:02.200Z,98505.47
2023-05-04T06:46:09.957Z,98509.09
2023-05-04T06:50:12.339Z,98512.44
2023-05-04T06:54:14.356Z,98498.34
2023-05-04T06:58:18.991Z,98503.44
2023-05-04T07:02:21.008Z,98504.84
2023-05-04T07:06:26.348Z,98495.81
2023-05-04T07:10:28.840Z,98507.75
2023-05-04T07:14:30.868Z,98510.91
2023-05-04T07:18:32.965Z,98508.03
2023-05-04T07:22:35.087Z,98505.19
2023-05-04T07:26:37.229Z,98492.31
2023-05-04T07:30:39.251Z,98488.84
2023-05-04T07:34:46.327Z,98484.72
2023-05-04T07:38:48.625Z,98480.78
2023-05-04T07:42:50.786Z,98481.69
2023-05-04T07:46:52.790Z,98477.81
2023-05-04T07:50:54.817Z,98482.38
2023-05-04T07:54:56.860Z,98478.91
2023-05-04T07:58:58.946Z,98471.53
2023-05-04T08:03:00.986Z,98475.03
2023-05-04T08:07:03.052Z,98479.53
2023-05-04T08:11:18.681Z,98477.59
2023-05-04T08:15:22.355Z,98466.47
2023-05-04T08:19:24.520Z,98470.56
2023-05-04T08:23:26.763Z,98478.25
2023-05-04T08:27:28.834Z,98462.06
2023-05-04T08:31:30.895Z,98467.00
2023-05-04T08:35:32.984Z,98472.63
2023-05-04T08:39:35.104Z,98473.47
2023-05-04T08:43:37.405Z,98469.19
2023-05-04T08:47:42.906Z,98468.28
2023-05-04T08:51:46.113Z,98464.09
2023-05-04T08:55:51.211Z,98459.56
2023-05-04T08:59:54.691Z,98461.78
2023-05-04T09:03:57.915Z,98458.69
2023-05-04T09:08:00.081Z,98455.00
2023-05-04T09:12:02.084Z,98447.09
2023-05-04T09:16:04.717Z,98439.00
2023-05-04T09:20:07.431Z,98439.09
2023-05-04T09:24:09.634Z,98439.75
2023-05-04T09:28:11.763Z,98432.41
2023-05-04T09:32:16.379Z,98434.41
2023-05-04T09:36:21.009Z,98439.81
2023-05-04T09:40:36.033Z,98440.31
2023-05-04T09:44:38.151Z,98435.84
2023-05-04T09:48:50.851Z,98425.44
2023-05-04T09:52:54.612Z,98419.94
2023-05-04T09:57:05.616Z,98423.09
2023-05-04T10:01:08.215Z,98422.47
2023-05-04T10:05:14.821Z,98413.84
2023-05-04T10:09:18.060Z,98411.59
2023-05-04T10:13:20.056Z,98410.16
2023-05-04T10:17:59.704Z,98407.50
2023-05-04T10:22:26.386Z,98401.19
2023-05-04T10:27:03.048Z,98399.88
2023-05-04T10:31:07.315Z,98398.97
2023-05-04T10:35:10.444Z,98392.38
2023-05-04T10:39:18.776Z,98394.59
2023-05-04T10:43:29.089Z,98375.44
2023-05-04T10:47:35.624Z,98359.75
2023-05-04T10:51:48.553Z,98366.03
2023-05-04T10:55:51.563Z,98354.69
2023-05-04T10:59:59.063Z,98341.84
2023-05-04T11:04:01.529Z,98328.97
2023-05-04T11:08:18.192Z,98321.13
2023-05-04T11:12:20.328Z,98313.75
2023-05-04T11:16:26.848Z,98305.94
2023-05-04T11:20:29.024Z,98295.34
2023-05-04T11:24:46.468Z,98297.09
2023-05-04T11:28:48.462Z,98284.44
2023-05-04T11:32:50.436Z,98281.13
2023-05-04T11:36:54.513Z,98286.47
2023-05-04T11:40:56.667Z,98268.34
2023-05-04T11:44:58.855Z,98264.28
2023-05-04T11:49:01.185Z,98263.34
2023-05-04T11:53:12.166Z,98271.81
2023-05-04T11:57:23.427Z,98263.34
2023-05-04T12:01:25.619Z,98266.25
2023-05-04T12:05:28.415Z,98250.75
2023-05-04T12:09:30.657Z,98257.41
2023-05-04T12:13:32.706Z,98252.69
2023-05-04T12:17:43.979Z,98250.75
2023-05-04T12:21:53.316Z,98257.50
2023-05-04T12:25:58.468Z,98247.00
2023-05-04T12:30:00.736Z,98234.06
2023-05-04T12:34:02.725Z,98225.84
2023-05-04T12:38:04.789Z,98240.25
2023-05-04T12:42:06.819Z,98225.63
2023-05-04T12:46:09.140Z,98230.63
2023-05-04T12:50:11.241Z,98218.75
2023-05-04T12:54:13.290Z,98222.97
2023-05-04T12:58:15.382Z,98210.13
2023-05-04T13:02:17.483Z,98211.06
2023-05-04T13:06:19.772Z,98198.47
2023-05-04T13:10:21.971Z,98187.50
2023-05-04T13:14:24.079Z,98177.31
2023-05-04T13:18:27.523Z,98189.63
2023-05-04T13:22:29.873Z,98171.72
2023-05-04T13:26:32.200Z,98162.34
2023-05-04T13:30:34.231Z,98154.97
2023-05-04T13:34:36.441Z,98156.88
2023-05-04T13:38:38.595Z,98151.06
2023-05-04T13:42:40.647Z,98139.06
2023-05-04T13:46:42.751Z,98130.66
2023-05-04T13:50:44.830Z,98132.59
2023-05-04T13:54:46.905Z,98124.41
2023-05-04T13:58:48.970Z,98117.25
2023-05-04T14:02:51.084Z,98118.16
2023-05-04T14:06:54.019Z,98125.94
2023-05-04T14:10:56.577Z,98111.63
2023-05-04T14:14:59.077Z,98117.19
2023-05-04T14:19:01.202Z,98098.41
2023-05-04T14:23:03.273Z,98086.63
2023-05-04T14:27:05.449Z,98078.16
2023-05-04T14:31:10.159Z,98078.88
2023-05-04T14:35:12.519Z,98072.50
2023-05-04T14:39:14.547Z,98073.91
2023-05-04T14:43:16.835Z,98065.91
2023-05-04T14:47:20.120Z,98055.97
2023-05-04T14:51:30.342Z,98054.00
2023-05-04T14:55:33.548Z,98050.66
2023-05-04T14:59:35.644Z,98039.47
2023-05-04T15:03:38.979Z,98030.66
2023-05-04T15:07:41.158Z,98030.22
2023-05-04T15:11:43.231Z,98035.31
2023-05-04T15:15:45.442Z,98025.44
2023-05-04T15:19:47.396Z,98039.31
2023-05-04T15:23:49.369Z,98041.63
2023-05-04T15:27:51.342Z,98038.28
2023-05-04T15:31:54.597Z,98038.97
2023-05-04T15:35:56.703Z,98039.88
2023-05-04T15:40:01.119Z,98045.66
2023-05-04T15:44:07.632Z,98040.31
2023-05-04T15:48:09.717Z,98032.44
2023-05-04T15:52:11.757Z,98029.78
2023-05-04T15:56:15.409Z,98025.03
2023-05-04T16:00:17.816Z,98013.13
2023-05-04T16:04:20.185Z,98007.50
2023-05-04T16:08:22.286Z,98013.69
2023-05-04T16:12:24.295Z,97998.53
2023-05-04T16:16:26.526Z,97995.13
2023-05-04T16:20:28.782Z,97988.94
2023-05-04T16:24:31.374Z,97979.97
2023-05-04T16:28:34.852Z,97975.47
2023-05-04T16:32:37.167Z,97974.34
2023-05-04T16:36:39.251Z,97969.81
2023-05-04T16:40:42.055Z,97960.63
2023-05-04T16:44:44.094Z,97969.16
2023-05-04T16:48:46.218Z,97986.81
2023-05-04T16:52:48.201Z,97985.31
2023-05-04T16:56:50.330Z,97979.91
2023-05-04T17:00:52.347Z,97977.22
2023-05-04T17:04:54.332Z,97961.84
2023-05-04T17:08:56.401Z,97960.13
2023-05-04T17:12:59.736Z,97946.84
2023-05-04T17:17:03.728Z,97950.16
2023-05-04T17:21:05.863Z,97942.81
2023-05-04T17:25:09.569Z,97941.06
2023-05-04T17:29:12.024Z,97945.31
2023-05-04T17:33:14.184Z,97946.06
2023-05-04T17:37:16.431Z,97945.81
2023-05-04T17:41:18.648Z,97951.69
2023-05-04T17:45:21.464Z,97954.94
2023-05-04T17:49:23.475Z,97952.31
2023-05-04T17:53:29.275Z,97954.63
2023-05-04T17:57:31.350Z,97955.25
2023-05-04T18:01:33.414Z,97970.03
2023-05-04T18:05:35.650Z,97972.59
2023-05-04T18:09:37.816Z,97971.47
2023-05-04T18:13:39.808Z,97969.66
2023-05-04T18:17:41.909Z,97970.84
2023-05-04T18:21:43.931Z,97973.72
2023-05-04T18:25:45.972Z,97978.53
2023-05-04T18:29:48.656Z,97978.75
2023-05-04T18:33:50.673Z,97983.38
2023-05-04T18:37:52.663Z,97981.75
2023-05-04T18:41:54.622Z,97994.16
2023-05-04T18:45:56.878Z,97995.06
2023-05-04T18:49:59.875Z,97992.81
2023-05-04T18:54:02.161Z,98001.59
2023-05-04T18:58:04.296Z,98006.06
2023-05-04T19:02:07.139Z,98028.81
2023-05-04T19:06:09.143Z,98021.69
2023-05-04T19:10:11.616Z,98028.03
2023-05-04T19:14:13.782Z,98028.53
2023-05-04T19:18:16.957Z,98036.44
2023-05-04T19:22:18.983Z,98035.69
2023-05-04T19:26:21.446Z,98030.59
2023-05-04T19:30:23.548Z,98043.53
2023-05-04T19:34:25.623Z,98040.69
2023-05-04T19:38:27.854Z,98040.88
2023-05-04T19:42:29.845Z,98041.97
2023-05-04T19:46:32.013Z,98046.88
2023-05-04T19:50:34.081Z,98042.66
2023-05-04T19:54:38.097Z,98037.50
2023-05-04T19:58:40.222Z,98037.44
2023-05-04T20:02:42.548Z,98033.03
2023-05-04T20:06:44.690Z,98040.47
2023-05-04T20:10:46.877Z,98046.00
2023-05-04T20:14:48.890Z,98038.84
2023-05-04T20:18:51.008Z,98038.16
2023-05-04T20:22:53.121Z,98030.81
2023-05-04T20:26:55.135Z,98029.66
2023-05-04T20:30:57.279Z,98035.28
2023-05-04T20:34:59.389Z,98038.88
2023-05-04T20:39:02.451Z,98034.63
2023-05-04T20:43:05.122Z,98034.31
2023-05-04T20:47:07.116Z,98025.31
2023-05-04T20:51:14.406Z,98023.84
2023-05-04T20:55:17.736Z,98027.47
2023-05-04T20:59:19.733Z,98026.09
2023-05-04T21:03:21.789Z,98009.97
2023-05-04T21:07:23.893Z,98016.16
2023-05-04T21:11:25.901Z,98004.00
2023-05-04T21:15:27.938Z,97995.56
2023-05-04T21:19:29.994Z,97996.66
2023-05-04T21:23:32.396Z,97995.81
2023-05-04T21:27:34.441Z,97993.53
2023-05-04T21:31:36.530Z,97992.63
2023-05-04T21:35:38.693Z,98002.66
2023-05-04T21:39:40.707Z,98000.41
2023-05-04T21:43:43.377Z,97996.69
2023-05-04T21:47:45.767Z,97997.16
2023-05-04T21:51:47.773Z,97993.84
2023-05-04T21:55:49.782Z,97993.94
2023-05-04T21:59:51.900Z,97989.50
2023-05-04T22:03:53.903Z,97988.66
2023-05-04T22:07:55.917Z,97990.34
2023-05-04T22:11:58.639Z,97983.72
2023-05-04T22:16:00.784Z,97990.69
2023-05-04T22:20:03.218Z,97984.19
2023-05-04T22:24:05.747Z,97976.75
2023-05-04T22:28:07.799Z,97986.19
2023-05-04T22:32:09.815Z,97983.38
2023-05-04T22:36:12.532Z,97988.91
2023-05-04T22:40:14.689Z,97978.13
2023-05-04T22:44:16.712Z,97979.78
2023-05-04T22:48:20.003Z,97984.69
2023-05-04T22:52:22.733Z,97973.16
2023-05-04T22:56:25.567Z,97974.53
2023-05-04T23:00:27.806Z,97977.38
2023-05-04T23:04:30.148Z,97981.19
2023-05-04T23:08:32.147Z,97979.75
2023-05-04T23:12:34.262Z,97970.19
2023-05-04T23:16:36.338Z,97970.94
2023-05-04T23:20:38.359Z,97971.00
2023-05-04T23:24:40.530Z,97970.28
2023-05-04T23:28:42.628Z,97958.88
2023-05-04T23:32:44.768Z,97970.03
2023-05-04T23:36:46.833Z,97964.03
2023-05-04T23:40:49.120Z,97958.28
2023-05-04T23:44:54.064Z,97951.06
2023-05-04T23:48:56.125Z,97958.88
2023-05-04T23:52:58.129Z,97950.09
2023-05-04T23:57:00.148Z,97957.94
